createdAt,value
2023-04-18T04:13:14.447Z,100.00
2023-04-18T04:16:18.207Z,100.00
2023-04-18T04:19:21.818Z,100.00
2023-04-18T04:22:25.777Z,100.00
2023-04-18T04:25:28.848Z,100.00
2023-04-18T04:28:32.216Z,100.00
2023-04-18T04:31:35.977Z,100.00
2023-04-18T04:34:41.285Z,100.00
2023-04-18T04:37:45.228Z,100.00
2023-04-18T04:40:49.755Z,100.00
2023-04-18T04:43:53.933Z,100.00
2023-04-18T04:46:57.768Z,100.00
2023-04-18T04:50:01.153Z,100.00
2023-04-18T04:53:07.451Z,100.00
2023-04-18T04:56:10.145Z,100.00
2023-04-18T04:59:14.868Z,100.00
2023-04-18T05:02:17.761Z,100.00
2023-04-18T05:05:20.694Z,100.00
2023-04-18T05:08:23.286Z,100.00
2023-04-18T05:11:26.397Z,100.00
2023-04-18T05:14:28.938Z,100.00
2023-04-18T05:17:31.811Z,100.00
2023-04-18T05:20:34.519Z,100.00
2023-04-18T05:23:37.431Z,100.00
2023-04-18T05:26:40.215Z,100.00
2023-04-18T05:29:43.072Z,100.00
2023-04-18T05:32:46.170Z,100.00
2023-04-18T05:35:49.050Z,100.00
2023-04-18T05:38:51.703Z,100.00
2023-04-18T05:41:54.676Z,100.00
2023-04-18T05:44:57.328Z,100.00
2023-04-18T05:48:00.554Z,100.00
2023-04-18T05:51:03.317Z,100.00
2023-04-18T05:54:06.268Z,100.00
2023-04-18T05:57:08.842Z,100.00
2023-04-18T06:00:12.746Z,100.00
2023-04-18T06:03:16.013Z,100.00
2023-04-18T06:06:19.026Z,100.00
2023-04-18T06:09:21.969Z,100.00
2023-04-18T06:12:24.695Z,100.00
2023-04-18T06:15:27.542Z,100.00
2023-04-18T06:18:30.418Z,100.00
2023-04-18T06:21:33.529Z,100.00
2023-04-18T06:24:37.392Z,100.00
2023-04-18T06:27:40.221Z,100.00
2023-04-18T06:30:43.022Z,100.00
2023-04-18T06:33:45.961Z,100.00
2023-04-18T06:36:49.389Z,100.00
2023-04-18T06:39:52.307Z,100.00
2023-04-18T06:42:55.512Z,100.00
2023-04-18T06:45:58.995Z,100.00
2023-04-18T06:49:06.681Z,100.00
2023-04-18T06:52:09.781Z,100.00
2023-04-18T06:55:13.574Z,100.00
2023-04-18T06:58:17.165Z,100.00
2023-04-18T07:01:19.888Z,100.00
2023-04-18T07:04:23.545Z,100.00
2023-04-18T07:07:26.562Z,100.00
2023-04-18T07:10:29.929Z,100.00
2023-04-18T07:13:33.160Z,100.00
2023-04-18T07:16:36.029Z,100.00
2023-04-18T07:19:38.626Z,100.00
2023-04-18T07:22:41.588Z,100.00
2023-04-18T07:25:44.227Z,100.00
2023-04-18T07:28:46.972Z,100.00
2023-04-18T07:31:49.919Z,100.00
2023-04-18T07:34:53.810Z,100.00
2023-04-18T07:37:56.267Z,100.00
2023-04-18T07:41:01.279Z,100.00
2023-04-18T07:44:03.985Z,100.00
2023-04-18T07:47:11.478Z,100.00
2023-04-18T07:50:14.079Z,100.00
2023-04-18T07:53:16.982Z,100.00
2023-04-18T07:56:19.610Z,100.00
2023-04-18T07:59:22.830Z,100.00
2023-04-18T08:02:25.759Z,100.00
2023-04-18T08:05:28.728Z,100.00
2023-04-18T08:08:31.773Z,100.00
2023-04-18T08:11:35.234Z,100.00
2023-04-18T08:14:37.892Z,100.00
2023-04-18T08:17:42.783Z,100.00
2023-04-18T08:20:45.697Z,98.58
2023-04-18T08:23:48.724Z,99.27
2023-04-18T08:26:51.250Z,95.21
2023-04-18T08:29:54.758Z,93.16
2023-04-18T08:32:57.373Z,93.54
2023-04-18T08:36:00.221Z,89.60
2023-04-18T08:39:02.816Z,80.97
2023-04-18T08:42:06.707Z,81.28
2023-04-18T08:45:09.632Z,84.53
2023-04-18T08:48:16.726Z,80.42
2023-04-18T08:51:19.239Z,79.35
2023-04-18T08:54:22.558Z,83.39
2023-04-18T08:57:28.011Z,86.03
2023-04-18T09:00:30.969Z,86.17
2023-04-18T09:03:40.105Z,86.47
2023-04-18T09:06:53.136Z,86.69
2023-04-18T09:09:59.942Z,89.35
2023-04-18T09:13:04.390Z,87.13
2023-04-18T09:16:07.284Z,82.65
2023-04-18T09:19:18.619Z,82.17
2023-04-18T09:22:21.959Z,84.84
2023-04-18T09:25:30.218Z,86.12
2023-04-18T09:28:33.625Z,80.41
2023-04-18T09:32:00.078Z,80.56
2023-04-18T09:35:05.436Z,80.64
2023-04-18T09:38:08.784Z,75.68
2023-04-18T09:41:12.561Z,74.93
2023-04-18T09:44:17.216Z,71.89
2023-04-18T09:47:20.173Z,61.18
2023-04-18T09:50:22.993Z,66.49
2023-04-18T09:53:26.738Z,62.77
2023-04-18T09:56:32.030Z,65.37
2023-04-18T10:00:14.341Z,66.70
2023-04-18T10:03:19.140Z,68.86
2023-04-18T10:06:22.136Z,67.56
2023-04-18T10:09:25.149Z,62.62
2023-04-18T10:12:27.970Z,58.73
2023-04-18T10:15:32.097Z,54.33
2023-04-18T10:18:36.326Z,56.09
2023-04-18T10:21:51.592Z,56.97
2023-04-18T10:24:54.234Z,54.54
2023-04-18T10:27:58.895Z,56.16
2023-04-18T10:31:05.829Z,56.88
2023-04-18T10:34:08.764Z,57.32
2023-04-18T10:37:13.033Z,57.50
2023-04-18T10:40:16.221Z,54.33
2023-04-18T10:43:18.942Z,54.24
2023-04-18T10:46:31.600Z,56.84
2023-04-18T10:49:38.290Z,51.70
2023-04-18T10:52:41.768Z,52.73
2023-04-18T10:55:54.509Z,53.82
2023-04-18T10:59:01.332Z,52.67
2023-04-18T11:02:25.678Z,54.78
2023-04-18T11:05:29.183Z,53.12
2023-04-18T11:08:32.090Z,53.11
2023-04-18T11:11:35.164Z,54.45
2023-04-18T11:14:46.364Z,54.77
2023-04-18T11:17:58.776Z,49.24
2023-04-18T11:21:03.802Z,50.94
2023-04-18T11:24:06.854Z,49.40
2023-04-18T11:27:11.056Z,50.51
2023-04-18T11:30:15.033Z,50.87
2023-04-18T11:33:18.511Z,54.10
2023-04-18T11:36:21.599Z,53.97
2023-04-18T11:39:24.774Z,56.90
2023-04-18T11:42:30.840Z,56.91
2023-04-18T11:45:33.579Z,57.64
2023-04-18T11:48:46.647Z,55.73
2023-04-18T11:51:49.233Z,58.53
2023-04-18T11:54:52.121Z,57.66
2023-04-18T11:57:56.891Z,57.58
2023-04-18T12:01:16.130Z,57.25
2023-04-18T12:04:19.857Z,55.96
2023-04-18T12:07:36.457Z,53.96
2023-04-18T12:10:47.434Z,54.83
2023-04-18T12:13:50.008Z,51.04
2023-04-18T12:16:52.795Z,49.55
2023-04-18T12:19:55.593Z,50.01
2023-04-18T12:22:58.506Z,48.06
2023-04-18T12:26:18.257Z,46.50
2023-04-18T12:29:21.394Z,48.35
2023-04-18T12:32:26.189Z,49.83
2023-04-18T12:35:31.268Z,49.57
2023-04-18T12:38:35.427Z,50.83
2023-04-18T12:41:38.824Z,51.39
2023-04-18T12:44:41.377Z,48.95
2023-04-18T12:47:46.879Z,47.61
2023-04-18T12:54:27.378Z,44.37
2023-04-18T12:57:31.743Z,43.84
2023-04-18T13:00:34.715Z,43.78
2023-04-18T13:03:38.124Z,42.36
2023-04-18T13:06:40.866Z,42.97
2023-04-18T13:09:43.845Z,41.86
2023-04-18T13:12:46.968Z,41.59
2023-04-18T13:15:50.783Z,41.97
2023-04-18T13:18:53.220Z,40.39
2023-04-18T13:21:56.106Z,40.03
2023-04-18T13:24:58.846Z,39.90
2023-04-18T13:28:01.914Z,39.54
2023-04-18T13:34:44.749Z,40.64
2023-04-18T13:53:19.521Z,38.39
2023-04-18T13:56:22.575Z,38.25
2023-04-18T13:59:25.866Z,39.29
2023-04-18T14:02:28.913Z,38.15
2023-04-18T14:05:31.956Z,38.57
2023-04-18T14:08:34.533Z,37.84
2023-04-18T14:11:37.686Z,37.63
2023-04-18T14:14:40.489Z,37.01
2023-04-18T14:17:45.452Z,37.24
2023-04-18T14:20:48.648Z,36.52
2023-04-18T14:23:52.695Z,35.91
2023-04-18T14:26:55.532Z,35.47
2023-04-18T14:29:58.436Z,34.95
2023-04-18T14:33:00.995Z,34.52
2023-04-18T14:36:04.352Z,34.52
2023-04-18T14:39:06.949Z,33.55
2023-04-18T14:42:10.049Z,31.46
2023-04-18T14:45:12.858Z,32.44
2023-04-18T14:48:16.250Z,33.19
2023-04-18T14:51:19.239Z,32.59
2023-04-18T14:54:22.093Z,32.10
2023-04-18T14:57:25.470Z,32.71
2023-04-18T15:00:28.868Z,33.74
2023-04-18T15:03:31.812Z,34.57
2023-04-18T15:06:34.873Z,35.36
2023-04-18T15:09:38.423Z,36.50
2023-04-18T15:12:42.546Z,36.57
2023-04-18T15:15:54.627Z,36.33
2023-04-18T15:18:57.777Z,35.73
2023-04-18T15:22:00.750Z,35.81
2023-04-18T15:25:04.925Z,35.93
2023-04-18T15:28:07.553Z,36.05
2023-04-18T15:31:10.883Z,36.46
2023-04-18T15:34:13.690Z,36.10
2023-04-18T15:37:16.950Z,36.45
2023-04-18T15:40:20.131Z,36.25
